Terminal Aerodrome Forecast
Issued by NWS Pueblo, CO

Home | Current Version | Previous Version | Text Only | Print | Product List | Glossary On
Versions: 1 2 3 4 5 6 7 8 9 10 11 12 13 14 15 16 17 18 19 20 21 22 23 24 25 26 27 28 29 30 31 32 33 34 35 36 37 38 39 40
000
FTUS45 KPUB 270523
TAFALS
TAF
KALS 270523Z 2706/2806 VRB06KT P6SM FEW140
     FM271800 20009KT P6SM FEW110 SCT200
     FM272000 25015G25KT P6SM SCT100 SCT200
     FM280100 27012KT P6SM SCT100 SCT200
     FM280400 VRB06KT P6SM SKC=

USA.gov is the U.S. government's official web portal to all federal, state and local government web resources and services.